North Stratford, NH (03590)

10:34 PM EDT on April 29, 2017 (GMT -0400)
MNSTN3 | | Change Station

Elev 1184 ft 44.75 °N, 71.63 °W | Updated 22 minutes ago

Mostly Cloudy
Mostly Cloudy
49.0 °F
Feels Like 49.0 °F
N
-
Wind Variable Wind from North

Today
High -- | Low -- °F
--% Chance of Precip.
Yesterday
High -- | Low -- °F
Precip. -- in
Pressure 30.12 in
Visibility 10.0 miles
Clouds Mostly Cloudy 5500 ft
Dew Point Not available.
Humidity Not available.
Rainfall in
Snow Depth Not available.
5:39 AM 7:49 PM
Waxing Crescent, 18% visible
METAR KCDA 300215Z AUTO 33013G19KT 10SM BKN055 08/M01 A3012 RMK AO2 T00771015
Pressure 30.12 in
Visibility 10.0 miles
Clouds Mostly Cloudy 5500 ft
Dew Point Not available.
Humidity Not available.
Rainfall in
Snow Depth Not available.
5:39 AM 7:49 PM
Waxing Crescent, 18% visible
METAR KCDA 300215Z AUTO 33013G19KT 10SM BKN055 08/M01 A3012 RMK AO2 T00771015

Get Severe Weather Alerts

Thanks for signing up!

Be on the lookout for a verification email in your inbox.

You'll start receiving the daily forecast at 8 AM.

×

10-Day Weather Forecast

Almanac

Astronomy

Apr. 29, 2017 Rise Set
Actual Time
Civil Twilight
Nautical Twilight
Astronomical Twilight
Moon
Length of Visible Light
Length of Day
Tomorrow will be .
, % of the Moon is Illuminated

Today's Extremes

State Highs State Lows

Community

WunderPhotos

WunderBlog® & News

Nearby

Air Quality

  Air Quality AQ Index Pollutant
Not available.

Snow Depth

Station Depth Elevation

Earthquake Activity

City Distance Mag. Time & Date
Minimum magnitude displayed is 2.5.

Coastal Water Temperatures

Place Temperature

Stations

Nearby Weather Stations

Station Location Temp. Windchill Dew Point Humidity Wind Precip. Elev Updated Type
                   

Watches & Warnings

There are currently no watches in effect.